Time;durP1;ratioP1;P1;durP2;ratioP2;P2;SDS_P1;SDS_P2;PMS_P1;PMS_P2;Temp;Humidity;BMP_temperature;BMP_pressure;BME280_temperature;BME280_humidity;BME280_pressure;Samples;Min_cycle;Max_cycle;Signal;HPM_P1;HPM_P2
2021/10/04 00:01:04;;;;;;;4.55;0.80;;;14.20;96.50;;;;;;4990387;28;20034;-73
2021/10/04 00:03:30;;;;;;;1.10;0.88;;;14.30;96.60;;;;;;4991703;28;20495;-73
2021/10/04 00:05:56;;;;;;;1.67;0.82;;;14.20;96.60;;;;;;4992318;28;20026;-73
2021/10/04 00:08:22;;;;;;;1.45;0.68;;;14.20;96.50;;;;;;4992176;28;20105;-73
2021/10/04 00:10:48;;;;;;;1.38;0.75;;;14.20;96.50;;;;;;4992087;28;20484;-73
2021/10/04 00:13:15;;;;;;;3.92;1.42;;;14.20;96.60;;;;;;4991999;28;20030;-73
2021/10/04 00:15:41;;;;;;;1.67;0.95;;;14.20;96.60;;;;;;4991049;28;20030;-74
2021/10/04 00:18:06;;;;;;;2.45;0.90;;;14.20;96.90;;;;;;4991506;28;20037;-74
2021/10/04 00:20:32;;;;;;;1.42;0.82;;;14.10;96.70;;;;;;4991334;28;20019;-73
2021/10/04 00:22:58;;;;;;;3.28;1.00;;;14.10;96.70;;;;;;4991461;28;20033;-73
2021/10/04 00:25:24;;;;;;;2.55;0.90;;;14.10;96.70;;;;;;4991500;28;20030;-74
2021/10/04 00:27:51;;;;;;;1.80;1.02;;;14.10;96.90;;;;;;4991407;28;20029;-74
2021/10/04 00:30:18;;;;;;;1.60;0.98;;;14.10;96.80;;;;;;4991588;28;20042;-73
2021/10/04 00:32:47;;;;;;;1.63;0.90;;;14.00;96.70;;;;;;4989795;28;20101;-73
2021/10/04 00:35:15;;;;;;;2.00;1.00;;;14.10;96.80;;;;;;4990921;28;20496;-73
2021/10/04 00:37:41;;;;;;;2.10;0.93;;;14.10;96.80;;;;;;4990782;28;20022;-73
2021/10/04 00:40:11;;;;;;;1.85;1.20;;;14.10;96.60;;;;;;4991466;28;20031;-73
2021/10/04 00:42:37;;;;;;;10.13;1.83;;;14.00;96.70;;;;;;4990327;28;20023;-74
2021/10/04 00:45:04;;;;;;;8.27;1.45;;;13.90;96.90;;;;;;4991332;28;20034;-73
2021/10/04 00:47:30;;;;;;;2.78;1.17;;;14.00;97.00;;;;;;4991161;28;20061;-74
2021/10/04 00:49:56;;;;;;;1.95;1.15;;;14.00;97.00;;;;;;4972097;28;20026;-74
2021/10/04 00:52:21;;;;;;;2.13;1.20;;;14.00;96.80;;;;;;4990631;28;20100;-74
2021/10/04 00:54:47;;;;;;;3.55;1.40;;;13.90;96.80;;;;;;4973500;28;20161;-74
2021/10/04 00:57:13;;;;;;;3.92;1.30;;;13.90;97.00;;;;;;4991185;28;20088;-74
2021/10/04 00:59:39;;;;;;;4.38;1.77;;;13.90;96.90;;;;;;4991450;28;20042;-74
2021/10/04 01:02:05;;;;;;;3.20;1.60;;;13.90;96.90;;;;;;4973400;28;20029;-74
2021/10/04 01:04:32;;;;;;;2.00;1.40;;;13.90;96.80;;;;;;4989802;28;20097;-74
2021/10/04 01:06:58;;;;;;;1.95;1.25;;;13.80;96.90;;;;;;4990847;28;20396;-74
2021/10/04 01:09:26;;;;;;;1.77;1.45;;;13.80;96.90;;;;;;4990569;28;20035;-74
2021/10/04 01:11:54;;;;;;;3.58;1.30;;;13.80;96.90;;;;;;4990785;28;20519;-74
2021/10/04 01:14:20;;;;;;;5.25;1.42;;;13.80;96.90;;;;;;4989728;28;20050;-73
2021/10/04 01:16:46;;;;;;;2.70;1.23;;;13.70;97.00;;;;;;4990455;28;20027;-74
2021/10/04 01:19:12;;;;;;;4.30;1.20;;;13.70;97.00;;;;;;4990610;28;20109;-73
2021/10/04 01:21:38;;;;;;;4.22;1.55;;;13.70;97.00;;;;;;4989497;28;20436;-73
2021/10/04 01:24:05;;;;;;;4.28;1.40;;;13.70;97.20;;;;;;4990066;28;20037;-73
2021/10/04 01:26:31;;;;;;;2.75;1.20;;;13.60;97.20;;;;;;4991091;28;20031;-73
2021/10/04 01:28:57;;;;;;;3.75;1.17;;;13.60;97.20;;;;;;4990437;28;20042;-73
2021/10/04 01:31:23;;;;;;;2.47;1.45;;;13.60;97.30;;;;;;4990290;28;20034;-74
2021/10/04 01:33:51;;;;;;;3.25;1.90;;;13.60;97.10;;;;;;4971958;28;20135;-73
2021/10/04 01:36:17;;;;;;;3.30;1.38;;;13.60;97.00;;;;;;4990840;28;20034;-74
2021/10/04 01:38:43;;;;;;;3.63;1.42;;;13.60;97.20;;;;;;4989282;28;20022;-74
2021/10/04 01:41:09;;;;;;;3.10;1.42;;;13.60;97.20;;;;;;4989883;28;20504;-73
2021/10/04 01:43:35;;;;;;;4.43;1.25;;;13.60;97.20;;;;;;4972896;28;20031;-73
2021/10/04 01:46:01;;;;;;;3.42;1.30;;;13.50;97.10;;;;;;4990075;28;20089;-73
2021/10/04 01:48:27;;;;;;;4.60;1.48;;;13.40;97.40;;;;;;4990522;28;20045;-73
2021/10/04 01:50:52;;;;;;;2.70;1.25;;;13.40;97.40;;;;;;4990407;28;20660;-73
2021/10/04 01:53:18;;;;;;;4.72;1.38;;;13.40;97.20;;;;;;4990243;28;20056;-73
2021/10/04 01:55:44;;;;;;;3.38;1.30;;;13.40;97.40;;;;;;4988938;28;20177;-74
2021/10/04 01:58:10;;;;;;;2.67;1.52;;;13.40;97.30;;;;;;4990646;28;20022;-73
2021/10/04 02:00:37;;;;;;;2.88;1.20;;;13.30;97.10;;;;;;4990755;28;20023;-73
2021/10/04 02:03:03;;;;;;;1.80;1.00;;;13.30;97.40;;;;;;4989978;28;20026;-73
2021/10/04 02:05:31;;;;;;;4.90;1.27;;;13.30;97.50;;;;;;4990041;28;20481;-74
2021/10/04 02:07:57;;;;;;;1.38;1.10;;;13.30;97.60;;;;;;4990091;28;20239;-74
2021/10/04 02:10:26;;;;;;;2.65;1.27;;;13.30;97.50;;;;;;4990279;28;20106;-73
2021/10/04 02:12:52;;;;;;;4.57;1.27;;;13.30;97.50;;;;;;4986408;28;20358;-74
2021/10/04 02:15:18;;;;;;;4.28;1.42;;;13.30;97.50;;;;;;4971363;28;20484;-73
2021/10/04 02:17:44;;;;;;;5.47;1.38;;;13.40;97.50;;;;;;4989795;28;20039;-73
2021/10/04 02:20:17;;;;;;;4.93;1.55;;;13.30;97.30;;;;;;4990044;28;20022;-73
2021/10/04 02:22:43;;;;;;;2.08;1.00;;;13.30;97.40;;;;;;4988729;28;20493;-73
2021/10/04 02:25:11;;;;;;;3.15;1.30;;;13.30;97.50;;;;;;4989925;28;20121;-73
2021/10/04 02:27:37;;;;;;;2.17;1.20;;;13.30;97.50;;;;;;4988998;28;20026;-73
2021/10/04 02:30:21;;;;;;;3.55;1.40;;;13.30;97.40;;;;;;4989842;28;20568;-71
2021/10/04 02:32:48;;;;;;;2.38;1.40;;;13.30;97.40;;;;;;4988545;28;20133;-74
2021/10/04 02:35:14;;;;;;;1.88;1.30;;;13.30;97.40;;;;;;4989879;28;20116;-74
2021/10/04 02:37:40;;;;;;;2.35;1.40;;;13.30;97.30;;;;;;4972394;28;20034;-72
2021/10/04 02:40:08;;;;;;;3.47;1.73;;;13.30;97.30;;;;;;4989829;28;20023;-73
2021/10/04 02:42:35;;;;;;;8.05;1.73;;;13.30;97.40;;;;;;4989772;28;20054;-73
2021/10/04 02:45:02;;;;;;;5.28;2.08;;;13.20;97.40;;;;;;4989109;28;20408;-73
2021/10/04 02:47:28;;;;;;;4.32;1.90;;;13.20;97.50;;;;;;4989604;28;20073;-73
2021/10/04 02:49:54;;;;;;;6.10;1.88;;;13.20;97.50;;;;;;4989742;28;20038;-73
2021/10/04 02:52:21;;;;;;;5.43;2.35;;;13.20;97.60;;;;;;4985613;28;20053;-73
2021/10/04 02:54:47;;;;;;;7.40;2.58;;;13.20;97.40;;;;;;4985948;28;20655;-73
2021/10/04 02:57:13;;;;;;;5.90;2.42;;;13.20;97.40;;;;;;4980899;28;20125;-73
2021/10/04 02:59:39;;;;;;;4.57;2.20;;;13.20;97.40;;;;;;4987640;28;20054;-73
2021/10/04 03:02:05;;;;;;;4.30;2.17;;;13.20;97.40;;;;;;4989620;28;20031;-73
2021/10/04 03:04:31;;;;;;;6.53;2.42;;;13.20;97.50;;;;;;4989597;28;20029;-73
2021/10/04 03:06:57;;;;;;;6.93;2.55;;;13.20;97.40;;;;;;4992666;28;20515;-73
2021/10/04 03:09:22;;;;;;;4.63;2.50;;;13.20;97.30;;;;;;4993133;28;20064;-73
2021/10/04 03:11:48;;;;;;;7.10;2.60;;;13.20;97.40;;;;;;4991664;28;20030;-73
2021/10/04 03:14:14;;;;;;;7.00;2.53;;;13.20;97.40;;;;;;4991782;28;20089;-73
2021/10/04 03:16:40;;;;;;;5.22;3.00;;;13.20;97.50;;;;;;4993263;28;20066;-74
2021/10/04 03:19:06;;;;;;;5.70;2.85;;;13.20;97.30;;;;;;4993034;28;20038;-74
2021/10/04 03:21:31;;;;;;;5.50;2.92;;;13.30;97.20;;;;;;4992718;28;20030;-74
2021/10/04 03:23:57;;;;;;;4.70;2.53;;;13.30;97.20;;;;;;4992442;28;20396;-73
2021/10/04 03:26:23;;;;;;;7.70;3.05;;;13.30;97.10;;;;;;4993493;28;20044;-73
2021/10/04 03:28:49;;;;;;;6.47;2.60;;;13.20;97.10;;;;;;4992514;28;20105;-73
2021/10/04 03:31:15;;;;;;;8.68;3.00;;;13.30;97.20;;;;;;4992377;28;20031;-73
2021/10/04 03:33:40;;;;;;;6.38;2.85;;;13.30;97.20;;;;;;4992402;28;20388;-73
2021/10/04 03:36:06;;;;;;;9.82;3.28;;;13.30;97.20;;;;;;4992924;28;20026;-73
2021/10/04 03:38:32;;;;;;;9.05;2.85;;;13.20;97.20;;;;;;4990403;28;20505;-73
2021/10/04 03:40:58;;;;;;;7.65;3.45;;;13.20;97.20;;;;;;4992515;28;20447;-73
2021/10/04 03:43:24;;;;;;;8.27;3.40;;;13.20;97.20;;;;;;4991387;28;20504;-73
2021/10/04 03:45:50;;;;;;;9.57;3.60;;;13.20;97.20;;;;;;4992178;28;20026;-73
2021/10/04 03:48:16;;;;;;;5.05;3.05;;;13.10;97.50;;;;;;4992609;28;20173;-73
2021/10/04 03:50:42;;;;;;;5.30;3.20;;;13.10;97.50;;;;;;4992524;28;20429;-73
2021/10/04 03:53:08;;;;;;;6.97;2.78;;;13.00;97.60;;;;;;4992015;28;20593;-73
2021/10/04 03:55:34;;;;;;;6.43;3.00;;;13.10;97.60;;;;;;4992302;28;20042;-73
2021/10/04 03:58:00;;;;;;;8.77;3.30;;;13.10;97.40;;;;;;4992665;28;20042;-73
2021/10/04 04:00:26;;;;;;;6.95;3.25;;;13.20;97.40;;;;;;4988870;28;20496;-73
2021/10/04 04:02:52;;;;;;;7.68;3.97;;;13.20;97.20;;;;;;4990883;28;20081;-73
2021/10/04 04:05:18;;;;;;;9.50;3.35;;;13.10;97.20;;;;;;4990200;28;20432;-73
2021/10/04 04:07:45;;;;;;;5.63;3.00;;;13.10;97.40;;;;;;4991984;28;20026;-73
2021/10/04 04:10:12;;;;;;;8.30;2.72;;;13.10;97.40;;;;;;4991848;28;20040;-73
2021/10/04 04:12:38;;;;;;;6.80;3.40;;;13.10;97.40;;;;;;4991910;28;20030;-73
2021/10/04 04:15:05;;;;;;;6.50;2.92;;;13.10;97.10;;;;;;4991266;28;20038;-73
2021/10/04 04:17:31;;;;;;;6.30;3.47;;;13.10;97.30;;;;;;4990639;28;20054;-73
2021/10/04 04:19:57;;;;;;;6.25;3.72;;;13.10;97.30;;;;;;4990668;28;20068;-73
2021/10/04 04:22:23;;;;;;;7.35;3.17;;;13.10;97.30;;;;;;4991149;28;20035;-73
2021/10/04 04:24:49;;;;;;;7.30;2.90;;;13.20;97.20;;;;;;4989490;28;20026;-73
2021/10/04 04:27:15;;;;;;;9.18;3.40;;;13.20;97.00;;;;;;4991736;28;20089;-73
2021/10/04 04:29:40;;;;;;;8.80;3.45;;;13.20;97.10;;;;;;4957953;28;20405;-73
2021/10/04 04:32:11;;;;;;;7.05;3.58;;;13.20;96.90;;;;;;4973724;28;20031;-73
2021/10/04 04:34:37;;;;;;;6.57;3.37;;;13.10;96.90;;;;;;4991569;28;20060;-73
2021/10/04 04:37:04;;;;;;;6.55;3.13;;;13.00;97.00;;;;;;4972615;28;20289;-73
2021/10/04 04:39:31;;;;;;;7.20;2.70;;;13.00;97.20;;;;;;4991162;28;20440;-73
2021/10/04 04:41:57;;;;;;;7.97;3.40;;;13.00;97.20;;;;;;4990827;28;20072;-73
2021/10/04 04:44:23;;;;;;;5.32;2.85;;;13.00;97.20;;;;;;4991559;28;20117;-73
2021/10/04 04:46:50;;;;;;;10.23;3.30;;;13.00;97.20;;;;;;4991163;28;20121;-73
2021/10/04 04:49:17;;;;;;;9.02;3.40;;;13.10;97.10;;;;;;4989427;28;20030;-73
2021/10/04 04:51:42;;;;;;;7.90;3.13;;;13.10;97.10;;;;;;4972463;28;20038;-73
2021/10/04 04:54:08;;;;;;;9.13;2.60;;;13.10;97.10;;;;;;4990707;28;20117;-73
2021/10/04 04:56:34;;;;;;;8.52;3.00;;;13.20;97.00;;;;;;4990856;28;20026;-73
2021/10/04 04:59:00;;;;;;;5.93;2.95;;;13.20;97.10;;;;;;4991113;28;20125;-73
2021/10/04 05:01:26;;;;;;;10.85;3.70;;;13.10;97.00;;;;;;4990834;28;20572;-73
2021/10/04 05:03:52;;;;;;;10.52;3.75;;;13.10;97.00;;;;;;4971249;28;20038;-72
2021/10/04 05:06:18;;;;;;;8.05;2.63;;;13.00;97.10;;;;;;4991268;28;20108;-72
2021/10/04 05:08:44;;;;;;;10.98;3.20;;;13.10;97.20;;;;;;4989857;28;20037;-73
2021/10/04 05:11:10;;;;;;;8.07;3.22;;;13.10;97.10;;;;;;4991184;28;20064;-73
2021/10/04 05:13:35;;;;;;;10.48;3.42;;;13.00;97.10;;;;;;4990940;28;20030;-72
2021/10/04 05:16:01;;;;;;;6.63;2.67;;;13.00;97.20;;;;;;4990158;28;20500;-72
2021/10/04 05:18:27;;;;;;;7.90;2.90;;;13.00;97.30;;;;;;4990722;28;20022;-73
2021/10/04 05:20:53;;;;;;;6.30;2.90;;;13.00;97.20;;;;;;4989281;28;20042;-73
2021/10/04 05:23:19;;;;;;;7.45;3.15;;;12.90;97.30;;;;;;4989986;28;20034;-73
2021/10/04 05:25:44;;;;;;;8.73;3.10;;;13.00;97.40;;;;;;4993659;28;20052;-73
2021/10/04 05:28:10;;;;;;;10.07;2.90;;;13.00;97.40;;;;;;4972995;28;20073;-73
2021/10/04 05:30:36;;;;;;;11.75;4.05;;;13.00;97.30;;;;;;4990835;28;20035;-72
2021/10/04 05:33:02;;;;;;;6.78;2.97;;;12.90;97.10;;;;;;4971871;28;20034;-72
2021/10/04 05:35:28;;;;;;;9.68;2.80;;;12.90;97.40;;;;;;4990367;28;20031;-72
2021/10/04 05:37:54;;;;;;;8.60;2.80;;;12.90;97.30;;;;;;4989649;28;20026;-72
2021/10/04 05:40:21;;;;;;;7.70;2.17;;;13.00;97.30;;;;;;4972670;28;20030;-72
2021/10/04 05:42:47;;;;;;;7.65;3.28;;;13.00;97.30;;;;;;4988612;28;20048;-72
2021/10/04 05:45:14;;;;;;;10.00;3.03;;;13.00;97.20;;;;;;4972560;28;20030;-72
2021/10/04 05:47:41;;;;;;;6.32;2.92;;;13.00;97.20;;;;;;4990575;28;20038;-73
2021/10/04 05:50:08;;;;;;;8.05;2.80;;;13.00;97.20;;;;;;4987885;28;20034;-74
2021/10/04 05:52:33;;;;;;;7.60;2.90;;;13.00;97.20;;;;;;4990631;28;20030;-72
2021/10/04 05:54:59;;;;;;;7.30;2.80;;;13.00;97.20;;;;;;4989261;28;20523;-72
2021/10/04 05:57:25;;;;;;;8.60;2.80;;;13.10;97.20;;;;;;4990139;28;20092;-73
2021/10/04 05:59:51;;;;;;;6.93;2.47;;;13.00;97.10;;;;;;4990617;28;20034;-72
2021/10/04 06:02:16;;;;;;;6.88;2.55;;;13.00;97.10;;;;;;4989275;28;20022;-72
2021/10/04 06:04:42;;;;;;;6.20;2.40;;;13.10;97.10;;;;;;4990576;28;20061;-72
2021/10/04 06:07:08;;;;;;;10.93;2.70;;;13.10;97.10;;;;;;4989737;28;20621;-72
2021/10/04 06:09:33;;;;;;;5.00;2.03;;;13.10;97.10;;;;;;4989763;28;20109;-73
2021/10/04 06:11:59;;;;;;;6.18;2.20;;;13.00;97.00;;;;;;4987391;28;20033;-72
2021/10/04 06:14:25;;;;;;;9.20;2.95;;;13.10;97.10;;;;;;4988177;28;20054;-72
2021/10/04 06:16:53;;;;;;;5.93;2.17;;;13.10;97.10;;;;;;4989983;28;20034;-73
2021/10/04 06:19:19;;;;;;;7.60;2.35;;;13.10;97.10;;;;;;4989338;28;20031;-72
2021/10/04 06:21:45;;;;;;;11.02;2.78;;;13.10;96.80;;;;;;4989507;28;20050;-72
2021/10/04 06:24:10;;;;;;;8.48;2.42;;;13.10;96.90;;;;;;4988589;28;20034;-73
2021/10/04 06:26:36;;;;;;;4.88;2.05;;;13.10;97.10;;;;;;4987141;28;20031;-72
2021/10/04 06:29:03;;;;;;;9.55;2.50;;;13.10;96.90;;;;;;4985973;28;20042;-73
2021/10/04 06:31:28;;;;;;;6.20;2.17;;;13.10;96.90;;;;;;4989155;28;20026;-72
2021/10/04 06:33:54;;;;;;;2.53;1.42;;;13.10;96.90;;;;;;4971951;28;20034;-73
2021/10/04 06:36:20;;;;;;;7.28;1.90;;;13.20;96.90;;;;;;4972611;28;20031;-73
2021/10/04 06:38:46;;;;;;;6.45;2.00;;;13.20;96.90;;;;;;4982236;28;20039;-72
2021/10/04 06:41:12;;;;;;;6.85;2.22;;;13.20;96.90;;;;;;4969628;28;20041;-73
2021/10/04 06:43:37;;;;;;;6.15;2.38;;;13.20;97.30;;;;;;4989800;28;20065;-72
2021/10/04 06:46:07;;;;;;;10.43;2.22;;;13.20;96.90;;;;;;4975774;28;20393;-73
2021/10/04 06:48:34;;;;;;;6.43;2.22;;;13.20;97.20;;;;;;4993704;28;20030;-72
2021/10/04 06:51:00;;;;;;;7.72;2.10;;;13.20;96.90;;;;;;4992297;28;20110;-72
2021/10/04 06:53:26;;;;;;;6.15;1.90;;;13.20;97.10;;;;;;4992953;28;20113;-72
2021/10/04 06:55:52;;;;;;;5.00;1.95;;;13.20;97.10;;;;;;4992209;28;20128;-73
2021/10/04 06:58:17;;;;;;;5.57;1.70;;;13.30;97.00;;;;;;4983248;28;20030;-73
2021/10/04 07:00:43;;;;;;;3.10;1.80;;;13.40;96.90;;;;;;4983984;28;20037;-73
2021/10/04 07:03:09;;;;;;;7.95;2.10;;;13.40;96.60;;;;;;4970156;28;20023;-72
2021/10/04 07:05:35;;;;;;;8.10;1.77;;;13.40;96.30;;;;;;4985736;28;20034;-72
2021/10/04 07:08:00;;;;;;;7.50;2.10;;;13.50;96.40;;;;;;4969406;28;20022;-73
2021/10/04 07:10:28;;;;;;;8.25;1.65;;;13.50;96.50;;;;;;4992693;28;20074;-72
2021/10/04 07:12:54;;;;;;;7.53;2.38;;;13.50;96.30;;;;;;4992962;28;20037;-73
2021/10/04 07:15:20;;;;;;;6.47;1.60;;;13.50;96.40;;;;;;4983682;28;20035;-72
2021/10/04 07:17:46;;;;;;;4.18;1.75;;;13.60;96.30;;;;;;4991234;28;20057;-73
2021/10/04 07:20:11;;;;;;;6.05;1.83;;;13.60;96.20;;;;;;4991838;28;20311;-73
2021/10/04 07:22:39;;;;;;;3.45;1.67;;;13.70;96.10;;;;;;4992153;28;20029;-73
2021/10/04 07:25:05;;;;;;;5.47;1.73;;;13.80;95.90;;;;;;4993577;28;20034;-73
2021/10/04 07:27:31;;;;;;;4.63;1.70;;;13.90;95.70;;;;;;4992059;28;20086;-73
2021/10/04 07:29:57;;;;;;;7.57;1.70;;;14.00;95.40;;;;;;4991943;28;20058;-73
2021/10/04 07:32:23;;;;;;;4.13;1.40;;;14.00;95.30;;;;;;4991569;28;20054;-72
2021/10/04 07:34:48;;;;;;;5.85;1.98;;;13.80;95.50;;;;;;4990403;28;20489;-72
2021/10/04 07:37:14;;;;;;;5.28;1.70;;;13.80;95.50;;;;;;4990481;28;20035;-72
2021/10/04 07:39:40;;;;;;;7.82;2.15;;;13.90;95.60;;;;;;4972587;28;20028;-73
2021/10/04 07:42:06;;;;;;;6.97;1.80;;;13.90;95.40;;;;;;4990975;28;20078;-72
2021/10/04 07:44:32;;;;;;;2.53;1.40;;;13.90;95.40;;;;;;4991120;28;20837;-73
2021/10/04 07:46:58;;;;;;;4.50;1.35;;;14.00;95.50;;;;;;4990489;28;20034;-72
2021/10/04 07:49:24;;;;;;;6.40;1.83;;;14.10;95.40;;;;;;4988696;28;20034;-73
2021/10/04 07:51:51;;;;;;;4.75;1.13;;;14.10;94.70;;;;;;4990440;28;20133;-73
2021/10/04 07:54:16;;;;;;;5.75;1.80;;;14.20;95.00;;;;;;4991722;28;20057;-73
2021/10/04 07:56:42;;;;;;;11.05;1.73;;;14.30;95.00;;;;;;4991267;28;20400;-73
2021/10/04 07:59:09;;;;;;;3.50;1.50;;;14.30;94.60;;;;;;4990028;28;20034;-73
2021/10/04 08:01:36;;;;;;;4.70;1.65;;;14.40;94.70;;;;;;4988774;28;20753;-72
2021/10/04 08:04:03;;;;;;;6.80;1.60;;;14.40;94.50;;;;;;4988177;28;20030;-73
2021/10/04 08:06:29;;;;;;;3.20;1.40;;;14.40;94.40;;;;;;4988234;28;20041;-73
2021/10/04 08:08:55;;;;;;;7.53;2.30;;;14.40;94.20;;;;;;4986755;28;20026;-73
2021/10/04 08:11:21;;;;;;;4.68;1.75;;;14.40;94.10;;;;;;4989588;28;20150;-73
2021/10/04 08:13:49;;;;;;;7.15;1.70;;;14.40;94.20;;;;;;4985236;28;20026;-72
2021/10/04 08:16:15;;;;;;;6.35;1.85;;;14.50;94.30;;;;;;4987366;28;20062;-73
2021/10/04 08:18:41;;;;;;;6.88;1.75;;;14.50;94.10;;;;;;4985971;28;20038;-72
2021/10/04 08:21:06;;;;;;;6.63;1.80;;;14.60;93.70;;;;;;4988253;28;20034;-73
2021/10/04 08:23:33;;;;;;;5.28;1.45;;;14.60;93.90;;;;;;4985870;28;20540;-73
2021/10/04 08:25:58;;;;;;;6.45;1.52;;;14.60;93.90;;;;;;4988253;28;20041;-73
2021/10/04 08:28:24;;;;;;;3.28;1.40;;;14.60;93.80;;;;;;4984281;28;20400;-73
2021/10/04 08:30:50;;;;;;;5.10;1.40;;;14.60;93.70;;;;;;4987429;28;20058;-73
2021/10/04 08:33:15;;;;;;;4.88;1.63;;;14.60;93.60;;;;;;4987322;28;20088;-73
2021/10/04 08:35:41;;;;;;;4.75;1.67;;;14.60;93.50;;;;;;4987040;28;20473;-73
2021/10/04 08:38:07;;;;;;;5.82;1.33;;;14.50;93.70;;;;;;4987701;28;20030;-73
2021/10/04 08:40:33;;;;;;;3.78;1.23;;;14.70;93.80;;;;;;4987361;28;20033;-73
2021/10/04 08:42:58;;;;;;;6.18;1.88;;;14.70;93.70;;;;;;4987880;28;20100;-73
2021/10/04 08:45:27;;;;;;;5.55;1.92;;;14.80;93.60;;;;;;4986277;28;20037;-73
2021/10/04 08:47:58;;;;;;;3.05;1.23;;;14.80;93.60;;;;;;4986556;28;20049;-73
2021/10/04 08:50:26;;;;;;;4.20;1.70;;;14.90;93.80;;;;;;4987980;28;20034;-73
2021/10/04 08:52:51;;;;;;;4.53;1.45;;;15.00;93.80;;;;;;4988285;28;20035;-73
2021/10/04 08:55:18;;;;;;;4.97;1.50;;;15.10;93.30;;;;;;4986747;28;20033;-73
2021/10/04 08:57:45;;;;;;;5.68;1.40;;;15.10;93.50;;;;;;4985992;28;20190;-73
2021/10/04 09:00:11;;;;;;;7.05;1.75;;;15.20;93.30;;;;;;4987954;28;20030;-73
2021/10/04 09:02:37;;;;;;;3.25;1.17;;;15.30;93.20;;;;;;4984217;28;20489;-73
2021/10/04 09:05:18;;;;;;;2.83;1.10;;;15.30;93.10;;;;;;4987179;28;20255;-73
2021/10/04 09:07:53;;;;;;;10.13;1.60;;;15.40;92.90;;;;;;4986211;28;20507;-73
2021/10/04 09:10:24;;;;;;;5.78;1.38;;;15.30;92.60;;;;;;4988802;28;20034;-73
2021/10/04 09:13:05;;;;;;;3.60;1.50;;;15.20;93.10;;;;;;4987698;28;20244;-73
2021/10/04 09:15:39;;;;;;;6.90;1.50;;;15.20;93.10;;;;;;4986404;28;20058;-73
2021/10/04 09:18:27;;;;;;;3.25;1.20;;;15.30;93.10;;;;;;4986079;28;20026;-73
2021/10/04 09:20:54;;;;;;;2.95;1.02;;;15.30;93.00;;;;;;4968408;28;20026;-73
2021/10/04 09:23:55;;;;;;;8.43;1.50;;;15.30;93.10;;;;;;4984556;28;20037;-73
2021/10/04 09:26:24;;;;;;;4.38;1.35;;;15.10;92.60;;;;;;4982453;28;20038;-73
2021/10/04 09:28:57;;;;;;;6.95;1.33;;;15.10;92.90;;;;;;4979713;28;20034;-73
2021/10/04 09:31:28;;;;;;;3.67;1.02;;;15.00;93.20;;;;;;4979243;28;20030;-73
2021/10/04 09:33:59;;;;;;;5.28;1.40;;;15.00;93.30;;;;;;4988976;28;20030;-73
2021/10/04 09:36:25;;;;;;;;;;;15.00;93.30;;;;;;4980707;28;20489;-73
2021/10/04 09:39:15;;;;;;;4.85;1.50;;;15.00;93.20;;;;;;4977673;28;19917;-73
2021/10/04 09:42:01;;;;;;;5.22;1.20;;;14.80;93.20;;;;;;4980038;28;20372;-72
2021/10/04 09:44:49;;;;;;;3.72;1.23;;;14.80;93.10;;;;;;4988565;28;20125;-73
2021/10/04 09:47:21;;;;;;;4.90;1.10;;;14.70;93.30;;;;;;4985193;28;20039;-73
2021/10/04 09:50:06;;;;;;;3.92;1.17;;;14.70;93.30;;;;;;4976607;28;20500;-73
2021/10/04 09:53:06;;;;;;;2.95;1.00;;;14.70;93.70;;;;;;4977063;28;20382;-73
2021/10/04 09:55:50;;;;;;;3.88;0.90;;;14.70;93.60;;;;;;4979130;28;20066;-73
2021/10/04 09:58:19;;;;;;;5.75;1.20;;;14.70;93.50;;;;;;4989436;28;20034;-73
2021/10/04 10:00:48;;;;;;;5.60;1.60;;;14.70;93.60;;;;;;4977422;28;20031;-73
2021/10/04 10:03:18;;;;;;;4.38;0.98;;;14.60;93.60;;;;;;4983823;28;20050;-73
2021/10/04 10:05:50;;;;;;;3.30;1.00;;;14.70;93.50;;;;;;4982185;28;20196;-73
2021/10/04 10:08:19;;;;;;;2.75;1.23;;;14.80;93.50;;;;;;4988093;28;20036;-73
2021/10/04 10:10:46;;;;;;;3.50;1.17;;;14.90;93.20;;;;;;4987314;28;20150;-73
2021/10/04 10:13:15;;;;;;;7.35;1.67;;;15.00;93.10;;;;;;4987304;28;20532;-73
2021/10/04 10:15:45;;;;;;;6.72;1.80;;;15.00;93.10;;;;;;4990115;28;20133;-73
2021/10/04 10:18:19;;;;;;;3.97;1.10;;;15.10;93.00;;;;;;4991983;28;20037;-74
2021/10/04 10:20:53;;;;;;;2.03;1.00;;;15.20;92.90;;;;;;4990594;28;20041;-73
2021/10/04 10:23:45;;;;;;;6.00;0.93;;;15.20;93.10;;;;;;4982847;28;20031;-73
2021/10/04 10:26:31;;;;;;;7.43;1.30;;;15.40;93.60;;;;;;4964528;28;20049;-73
2021/10/04 10:29:09;;;;;;;2.92;1.05;;;15.40;92.70;;;;;;4991719;28;20072;-73
2021/10/04 10:31:50;;;;;;;2.85;1.13;;;15.40;92.60;;;;;;4991061;28;20022;-73
2021/10/04 10:34:27;;;;;;;5.53;1.30;;;15.50;92.80;;;;;;4972279;28;20303;-73
2021/10/04 10:37:23;;;;;;;8.07;1.38;;;15.40;92.20;;;;;;4992599;28;20071;-73
2021/10/04 10:39:55;;;;;;;4.43;1.10;;;15.30;92.30;;;;;;4991386;28;20097;-73
2021/10/04 10:42:52;;;;;;;4.55;1.17;;;15.20;92.80;;;;;;4989700;28;20041;-74
2021/10/04 10:45:18;;;;;;;8.00;1.30;;;15.30;92.90;;;;;;4970441;28;20041;-73
2021/10/04 10:47:44;;;;;;;6.97;1.33;;;15.30;92.40;;;;;;4991963;28;20054;-73
2021/10/04 10:50:09;;;;;;;5.50;1.20;;;15.30;92.80;;;;;;4990950;28;20061;-73
2021/10/04 10:52:38;;;;;;;4.30;1.13;;;15.40;92.80;;;;;;4992269;28;20467;-73
2021/10/04 10:55:18;;;;;;;29.08;14.50;;;15.40;92.60;;;;;;4990667;28;20125;-73
2021/10/04 11:00:18;;;;;;;15.60;6.20;;;15.50;92.20;;;;;;4990010;28;20026;-73
2021/10/04 11:02:55;;;;;;;33.40;20.83;;;15.50;92.20;;;;;;4991381;28;20138;-73
2021/10/04 11:05:38;;;;;;;5.53;2.55;;;15.50;92.40;;;;;;4977938;28;20030;-73
2021/10/04 11:08:11;;;;;;;8.73;3.75;;;15.50;91.90;;;;;;4990096;28;20072;-73
2021/10/04 11:10:49;;;;;;;4.10;1.40;;;15.60;92.20;;;;;;4991512;28;20019;-74
2021/10/04 11:13:15;;;;;;;3.40;0.95;;;15.60;91.90;;;;;;4972129;28;20212;-73
2021/10/04 11:15:42;;;;;;;7.15;1.40;;;15.70;92.00;;;;;;4987425;28;20057;-73
2021/10/04 11:18:09;;;;;;;4.20;1.38;;;15.70;91.80;;;;;;4991300;28;20439;-73
2021/10/04 11:20:36;;;;;;;8.18;1.65;;;15.80;91.80;;;;;;4991689;28;20504;-73
2021/10/04 11:23:17;;;;;;;11.85;1.38;;;15.90;91.70;;;;;;4988269;28;20062;-73
2021/10/04 11:25:46;;;;;;;5.53;1.75;;;15.90;91.50;;;;;;4989979;28;20117;-73
2021/10/04 11:28:17;;;;;;;8.10;1.30;;;15.80;91.30;;;;;;4991477;28;20489;-74
2021/10/04 11:30:59;;;;;;;;;;;15.90;91.50;;;;;;4991541;28;20054;-73
2021/10/04 11:33:28;;;;;;;6.53;1.20;;;15.90;91.60;;;;;;4989564;28;19914;-74
2021/10/04 11:35:57;;;;;;;6.55;1.52;;;16.00;91.20;;;;;;4990850;28;20669;-73
2021/10/04 11:38:24;;;;;;;2.53;0.77;;;15.90;91.20;;;;;;4991097;28;20500;-73
2021/10/04 11:40:50;;;;;;;3.85;1.20;;;15.80;91.00;;;;;;4990431;28;20377;-73
2021/10/04 11:43:16;;;;;;;6.13;1.40;;;15.80;91.20;;;;;;4987996;28;20027;-73
2021/10/04 11:45:42;;;;;;;7.90;1.40;;;15.80;91.40;;;;;;4990690;28;20049;-73
2021/10/04 11:48:08;;;;;;;5.28;1.10;;;15.80;91.10;;;;;;4990008;28;20038;-73
2021/10/04 11:50:46;;;;;;;1.92;0.77;;;15.70;91.20;;;;;;4990897;28;20034;-73
2021/10/04 11:53:13;;;;;;;4.22;1.02;;;15.70;91.40;;;;;;4990309;28;20370;-73
2021/10/04 11:55:40;;;;;;;2.33;0.77;;;15.80;91.70;;;;;;4991261;28;20386;-73
2021/10/04 11:58:16;;;;;;;2.25;0.98;;;15.90;91.70;;;;;;4991284;28;20492;-73
2021/10/04 12:00:45;;;;;;;5.80;1.05;;;15.90;91.50;;;;;;4971351;28;20026;-73
2021/10/04 12:03:22;;;;;;;3.45;0.75;;;15.90;91.30;;;;;;4988061;28;20026;-73
2021/10/04 12:05:52;;;;;;;2.20;0.82;;;16.00;91.40;;;;;;4989525;28;20034;-73
2021/10/04 12:08:19;;;;;;;4.03;0.97;;;16.20;91.70;;;;;;4989884;28;20531;-74
2021/10/04 12:10:56;;;;;;;3.42;1.10;;;16.40;90.80;;;;;;4990745;28;20292;-73
2021/10/04 12:13:26;;;;;;;2.45;1.10;;;16.50;90.80;;;;;;4989784;28;20139;-73
2021/10/04 12:15:55;;;;;;;3.45;1.00;;;16.60;90.40;;;;;;4990576;28;20041;-74
2021/10/04 12:18:26;;;;;;;2.75;0.90;;;16.70;90.10;;;;;;4991746;28;20069;-72
2021/10/04 12:21:19;;;;;;;4.28;1.13;;;16.80;90.30;;;;;;4991467;28;20080;-73
2021/10/04 12:24:03;;;;;;;4.28;1.23;;;16.80;90.30;;;;;;4989449;28;20600;-73
2021/10/04 12:26:29;;;;;;;5.32;1.35;;;16.70;89.60;;;;;;4989967;28;20034;-73
2021/10/04 12:28:55;;;;;;;5.88;1.05;;;16.80;90.20;;;;;;4989567;28;20034;-73
2021/10/04 12:31:38;;;;;;;3.85;1.23;;;16.80;89.40;;;;;;4989773;28;20132;-73
2021/10/04 12:34:20;;;;;;;5.75;1.48;;;16.90;89.70;;;;;;4988353;28;20042;-73
2021/10/04 12:36:46;;;;;;;4.35;1.27;;;17.00;88.30;;;;;;4989509;28;20523;-73
2021/10/04 12:39:12;;;;;;;5.50;1.23;;;16.90;88.60;;;;;;4986842;28;20022;-73
2021/10/04 12:41:43;;;;;;;7.43;1.38;;;17.00;89.30;;;;;;4989135;28;20026;-73
2021/10/04 12:44:17;;;;;;;7.78;1.00;;;17.10;89.10;;;;;;4990287;28;20027;-73
2021/10/04 12:47:07;;;;;;;3.90;0.98;;;17.00;87.00;;;;;;4990269;28;20030;-73
2021/10/04 12:49:34;;;;;;;7.35;1.35;;;17.10;87.40;;;;;;4988692;28;20030;-73
2021/10/04 12:52:02;;;;;;;6.55;1.20;;;17.00;87.50;;;;;;4989752;28;20488;-72
2021/10/04 12:54:30;;;;;;;6.68;1.58;;;17.00;88.30;;;;;;4988852;28;20481;-73